createdAt,value
2019-01-18T11:19:34.333Z,19.90
2019-01-18T11:22:24.794Z,28.03
2019-01-18T11:25:15.284Z,22.60
2019-01-18T11:28:05.535Z,30.97
2019-01-18T11:30:55.630Z,46.13
2019-01-18T11:33:45.752Z,29.37
2019-01-18T11:36:35.730Z,28.53
2019-01-18T11:39:26.413Z,24.53
2019-01-18T11:42:16.601Z,27.63
2019-01-18T11:45:08.206Z,26.10
2019-01-18T11:47:58.164Z,24.67
2019-01-18T11:50:48.357Z,28.67
2019-01-18T11:53:38.852Z,25.90
2019-01-18T11:56:29.196Z,25.47
2019-01-18T11:59:19.852Z,23.43
2019-01-18T12:02:15.164Z,26.97
2019-01-18T12:05:02.103Z,22.33
2019-01-18T12:07:53.127Z,21.87
2019-01-18T12:10:43.141Z,25.80
2019-01-18T12:13:33.264Z,19.90
2019-01-18T12:16:23.990Z,21.30
2019-01-18T12:19:13.970Z,27.33
2019-01-18T12:22:04.513Z,40.80
2019-01-18T12:24:54.754Z,34.50
2019-01-18T12:27:45.145Z,31.40
2019-01-18T12:30:36.441Z,26.53
2019-01-18T12:33:26.734Z,28.90
2019-01-18T12:36:17.730Z,21.57
2019-01-18T12:39:10.574Z,24.60
2019-01-18T12:42:00.703Z,22.70
2019-01-18T12:44:50.803Z,29.27
2019-01-18T12:47:41.042Z,25.20
2019-01-18T12:50:40.618Z,28.17
2019-01-18T12:53:30.926Z,27.83
2019-01-18T12:56:20.918Z,18.73
2019-01-18T12:59:10.890Z,26.87
2019-01-18T13:02:01.111Z,22.90
2019-01-18T13:04:51.075Z,22.73
2019-01-18T13:07:41.131Z,25.97
2019-01-18T13:10:31.546Z,28.73
2019-01-18T13:13:21.744Z,24.73
2019-01-18T13:16:37.882Z,25.87
2019-01-18T13:19:28.234Z,24.40
2019-01-18T13:22:18.355Z,20.53
2019-01-18T13:25:11.558Z,33.90
2019-01-18T13:28:01.660Z,24.53
2019-01-18T13:30:52.002Z,21.00
2019-01-18T13:33:42.491Z,21.67
2019-01-18T13:36:32.726Z,26.43
2019-01-18T13:39:23.229Z,26.67
2019-01-18T13:42:13.812Z,29.27
2019-01-18T13:45:03.953Z,25.67
2019-01-18T13:47:54.274Z,24.07
2019-01-18T13:50:44.199Z,25.97
2019-01-18T13:53:34.105Z,28.40
2019-01-18T13:56:24.445Z,24.60
2019-01-18T13:59:14.575Z,17.00
2019-01-18T14:02:04.485Z,16.17
2019-01-18T14:04:54.629Z,19.23
2019-01-18T14:07:45.322Z,20.83
2019-01-18T14:10:35.834Z,28.83
2019-01-18T14:13:25.745Z,21.27
2019-01-18T14:16:15.805Z,21.93
2019-01-18T14:19:05.809Z,24.60
2019-01-18T14:21:55.798Z,27.13
2019-01-18T14:24:45.951Z,24.50
2019-01-18T14:27:36.539Z,24.07
2019-01-18T14:30:26.966Z,22.03
2019-01-18T14:33:17.550Z,22.47
2019-01-18T14:36:07.669Z,25.40
2019-01-18T14:38:57.870Z,23.50
2019-01-18T14:41:47.786Z,25.47
2019-01-18T14:44:38.858Z,22.80
2019-01-18T14:47:29.315Z,25.67
2019-01-18T14:50:19.873Z,22.00
2019-01-18T14:53:10.710Z,26.43
2019-01-18T14:56:00.723Z,25.37
2019-01-18T14:58:51.126Z,36.80
2019-01-18T15:01:41.555Z,28.50
2019-01-18T15:04:31.989Z,18.53
2019-01-18T15:07:23.365Z,28.63
2019-01-18T15:10:15.962Z,27.40
2019-01-18T15:13:15.254Z,31.00
2019-01-18T15:16:05.782Z,24.33
2019-01-18T15:18:56.022Z,26.90
2019-01-18T15:21:46.254Z,25.27
2019-01-18T15:24:36.699Z,27.53
2019-01-18T15:27:27.398Z,20.87
2019-01-18T15:30:20.647Z,24.77
2019-01-18T15:33:10.882Z,25.57
2019-01-18T15:36:01.249Z,28.70
2019-01-18T15:38:51.665Z,24.23
2019-01-18T15:41:41.623Z,29.50
2019-01-18T15:44:31.889Z,32.50
2019-01-18T15:47:21.809Z,28.50
2019-01-18T15:50:15.426Z,39.87
2019-01-18T15:53:06.258Z,32.20
2019-01-18T15:55:56.522Z,36.90
2019-01-18T15:58:46.734Z,40.30
2019-01-18T16:01:37.070Z,38.77
2019-01-18T16:04:27.129Z,41.97
2019-01-18T16:07:17.695Z,31.60
2019-01-18T16:10:08.654Z,27.40
2019-01-18T16:12:58.750Z,33.00
2019-01-18T16:16:16.122Z,35.07
2019-01-18T16:19:06.318Z,34.50
2019-01-18T16:21:56.498Z,30.67
2019-01-18T16:24:46.689Z,44.40
2019-01-18T16:27:36.935Z,35.43
2019-01-18T16:30:27.386Z,26.20
2019-01-18T16:33:23.379Z,35.10
2019-01-18T16:36:09.121Z,34.70
2019-01-18T16:38:59.094Z,38.70
2019-01-18T16:41:49.186Z,34.57
2019-01-18T16:44:39.394Z,31.97
2019-01-18T16:47:29.686Z,34.20
2019-01-18T16:50:19.898Z,34.73
2019-01-18T16:53:10.017Z,33.50
2019-01-18T16:56:00.321Z,34.90
2019-01-18T16:58:50.722Z,36.33
2019-01-18T17:01:40.765Z,40.00
2019-01-18T17:04:31.107Z,44.47
2019-01-18T17:07:21.162Z,36.97
2019-01-18T17:10:12.922Z,31.27
2019-01-18T17:13:03.045Z,30.93
2019-01-18T17:15:53.253Z,44.30
2019-01-18T17:18:43.317Z,35.03
2019-01-18T17:21:33.246Z,38.33
2019-01-18T17:24:23.574Z,37.27
2019-01-18T17:27:14.081Z,38.23
2019-01-18T17:30:06.986Z,35.63
2019-01-18T17:32:57.144Z,46.43
2019-01-18T17:36:09.058Z,38.00
2019-01-18T17:39:34.770Z,40.27
2019-01-18T17:42:41.746Z,43.37
2019-01-18T17:45:49.461Z,42.23
2019-01-18T17:48:54.726Z,46.27
2019-01-18T17:52:25.873Z,41.30
2019-01-18T17:55:39.611Z,43.93
2019-01-18T17:59:06.465Z,53.13
2019-01-18T18:02:26.289Z,49.07
2019-01-18T18:06:02.959Z,43.67
2019-01-18T18:09:10.131Z,35.83
2019-01-18T18:12:32.442Z,48.40
2019-01-18T18:15:59.862Z,46.43
2019-01-18T18:19:42.137Z,47.07
2019-01-18T18:23:26.394Z,47.07
2019-01-18T18:26:53.986Z,56.60
2019-01-18T18:30:15.658Z,46.67
2019-01-18T18:33:53.289Z,52.93
2019-01-18T18:37:05.467Z,48.77
2019-01-18T18:40:32.542Z,46.43
2019-01-18T18:43:48.441Z,43.03
2019-01-18T18:47:10.850Z,43.00
2019-01-18T18:50:56.720Z,40.23
2019-01-18T18:54:23.467Z,39.13
2019-01-18T18:57:59.800Z,42.97
2019-01-18T19:01:50.023Z,47.90
2019-01-18T19:05:06.630Z,58.83
2019-01-18T19:08:39.745Z,62.47
2019-01-18T19:12:20.491Z,43.87
2019-01-18T19:15:38.419Z,43.43
2019-01-18T19:18:51.206Z,44.50
2019-01-18T19:22:12.187Z,61.90
2019-01-18T19:25:51.986Z,48.37
2019-01-18T19:29:08.625Z,46.33
2019-01-18T19:32:42.313Z,47.30
2019-01-18T19:36:01.396Z,44.37
2019-01-18T19:39:23.422Z,44.20
2019-01-18T19:42:45.775Z,47.63
2019-01-18T19:46:03.290Z,49.00
2019-01-18T19:49:23.535Z,44.97
2019-01-18T19:52:29.625Z,48.87
2019-01-18T19:56:16.518Z,43.00
2019-01-18T19:59:36.230Z,36.80
2019-01-18T20:03:10.557Z,48.67
2019-01-18T20:06:41.791Z,43.00
2019-01-18T20:09:48.807Z,46.10
2019-01-18T20:13:14.338Z,43.53
2019-01-18T20:16:48.314Z,43.03
2019-01-18T20:20:15.158Z,41.10
2019-01-18T20:23:33.145Z,51.07
2019-01-18T20:27:03.374Z,56.00
2019-01-18T20:30:24.390Z,42.50
2019-01-18T20:33:58.842Z,36.33
2019-01-18T20:37:17.675Z,53.57
2019-01-18T20:40:58.582Z,44.57
2019-01-18T20:44:27.310Z,47.47
2019-01-18T20:48:00.222Z,46.30
2019-01-18T20:51:19.402Z,51.27
2019-01-18T20:54:59.987Z,61.13
2019-01-18T20:58:19.433Z,61.30
2019-01-18T21:02:00.638Z,58.27
2019-01-18T21:05:05.278Z,55.10
2019-01-18T21:08:05.648Z,54.23
2019-01-18T21:11:23.948Z,49.33
2019-01-18T21:14:36.170Z,55.60
2019-01-18T21:18:09.557Z,52.90
2019-01-18T21:21:33.885Z,52.43
2019-01-18T21:24:49.672Z,52.27
2019-01-18T21:28:17.506Z,43.33
2019-01-18T21:31:52.202Z,37.50
2019-01-18T21:34:58.282Z,45.00
2019-01-18T21:38:43.150Z,45.27
2019-01-18T21:42:23.106Z,46.50
2019-01-18T21:45:48.002Z,47.67
2019-01-18T21:49:25.446Z,48.07
2019-01-18T21:52:35.165Z,46.63
2019-01-18T21:56:03.202Z,42.67
2019-01-18T21:59:42.678Z,38.37
2019-01-18T22:03:05.594Z,43.83
2019-01-18T22:06:19.318Z,49.60
2019-01-18T22:09:34.134Z,42.70
2019-01-18T22:13:01.568Z,54.63
2019-01-18T22:16:05.434Z,40.33
2019-01-18T22:19:50.962Z,47.93
2019-01-18T22:23:22.175Z,43.83
2019-01-18T22:26:42.858Z,44.43
2019-01-18T22:30:20.559Z,49.07
2019-01-18T22:34:03.998Z,48.30
2019-01-18T22:37:25.225Z,51.20
2019-01-18T22:40:53.286Z,51.67
2019-01-18T22:44:21.729Z,43.60
2019-01-18T22:48:06.733Z,51.50
2019-01-18T22:51:25.086Z,37.27
2019-01-18T22:54:54.951Z,45.07
2019-01-18T22:58:18.850Z,39.77
2019-01-18T23:01:38.791Z,44.37
2019-01-18T23:04:59.487Z,43.23
2019-01-18T23:08:04.334Z,45.67
2019-01-18T23:11:25.581Z,46.00
2019-01-18T23:15:02.922Z,43.73
2019-01-18T23:18:21.402Z,50.70
2019-01-18T23:21:30.655Z,41.30
2019-01-18T23:24:42.846Z,52.70
2019-01-18T23:27:57.144Z,38.80
2019-01-18T23:31:10.527Z,46.00
2019-01-18T23:34:15.531Z,41.87
2019-01-18T23:37:21.102Z,40.27
2019-01-18T23:40:41.349Z,58.50
2019-01-18T23:43:49.268Z,51.70
2019-01-18T23:47:28.555Z,52.63
2019-01-18T23:50:48.605Z,58.37
2019-01-18T23:53:59.674Z,51.93
2019-01-18T23:57:30.838Z,47.47
